createdAt,value
2022-10-14T00:01:42.322Z,276
2022-10-14T00:03:47.394Z,276
2022-10-14T00:05:53.081Z,276
2022-10-14T00:07:58.249Z,276
2022-10-14T00:10:03.483Z,276
2022-10-14T00:12:08.624Z,276
2022-10-14T00:14:13.634Z,276
2022-10-14T00:16:18.815Z,276
2022-10-14T00:18:24.230Z,277
2022-10-14T00:20:29.426Z,276
2022-10-14T00:22:34.412Z,277
2022-10-14T00:24:39.549Z,277
2022-10-14T00:26:44.631Z,277
2022-10-14T00:28:49.985Z,277
2022-10-14T00:30:55.403Z,277
2022-10-14T00:33:00.622Z,277
2022-10-14T00:35:05.817Z,276
2022-10-14T00:37:11.071Z,277
2022-10-14T00:39:16.200Z,277
2022-10-14T00:41:21.220Z,277
2022-10-14T00:43:26.271Z,276
2022-10-14T00:45:31.635Z,288
2022-10-14T00:47:36.843Z,288
2022-10-14T00:49:41.716Z,289
2022-10-14T00:51:46.738Z,288
2022-10-14T00:53:51.970Z,288
2022-10-14T00:55:57.147Z,289
2022-10-14T00:58:02.142Z,289
2022-10-14T01:00:07.274Z,289
2022-10-14T01:02:12.431Z,289
2022-10-14T01:04:17.719Z,289
2022-10-14T01:06:22.750Z,288
2022-10-14T01:08:27.967Z,289
2022-10-14T01:10:33.181Z,289
2022-10-14T01:12:38.546Z,288
2022-10-14T01:14:43.719Z,288
2022-10-14T01:16:48.738Z,288
2022-10-14T01:18:55.048Z,289
2022-10-14T01:21:00.311Z,288
2022-10-14T01:23:05.580Z,288
2022-10-14T01:25:10.758Z,288
2022-10-14T01:27:15.904Z,289
2022-10-14T01:29:21.299Z,288
2022-10-14T01:31:26.427Z,288
2022-10-14T01:33:31.463Z,288
2022-10-14T01:35:36.537Z,265
2022-10-14T01:37:41.434Z,273
2022-10-14T01:39:46.422Z,273
2022-10-14T01:41:52.028Z,272
2022-10-14T01:43:57.058Z,280
2022-10-14T01:46:02.076Z,280
2022-10-14T01:48:07.125Z,284
2022-10-14T01:50:12.236Z,284
2022-10-14T01:52:18.731Z,277
2022-10-14T01:54:24.657Z,283
2022-10-14T01:56:29.623Z,286
2022-10-14T01:58:34.975Z,285
2022-10-14T02:00:40.036Z,285
2022-10-14T02:02:45.214Z,286
2022-10-14T02:04:50.351Z,284
2022-10-14T02:06:55.700Z,286
2022-10-14T02:09:01.001Z,286
2022-10-14T02:11:06.196Z,276
2022-10-14T02:13:11.307Z,274
2022-10-14T02:15:16.395Z,290
2022-10-14T02:17:21.603Z,291
2022-10-14T02:19:26.829Z,291
2022-10-14T02:21:32.006Z,291
2022-10-14T02:23:37.041Z,291
2022-10-14T02:25:42.223Z,291
2022-10-14T02:27:47.334Z,291
2022-10-14T02:29:52.575Z,291
2022-10-14T02:31:58.230Z,291
2022-10-14T02:34:03.503Z,291
2022-10-14T02:36:08.536Z,291
2022-10-14T02:38:13.598Z,291
2022-10-14T02:40:19.177Z,291
2022-10-14T02:42:25.666Z,291
2022-10-14T02:44:30.957Z,291
2022-10-14T02:46:37.532Z,291
2022-10-14T02:48:42.529Z,291
2022-10-14T02:50:47.590Z,291
2022-10-14T02:52:52.615Z,291
2022-10-14T02:54:57.872Z,290
2022-10-14T02:57:03.530Z,291
2022-10-14T02:59:08.504Z,291
2022-10-14T03:01:13.579Z,290
2022-10-14T03:03:18.463Z,290
2022-10-14T03:05:23.586Z,290
2022-10-14T03:07:28.634Z,290
2022-10-14T03:09:33.550Z,291
2022-10-14T03:11:38.539Z,291
2022-10-14T03:13:43.576Z,290
2022-10-14T03:15:49.053Z,290
2022-10-14T03:17:54.414Z,290
2022-10-14T03:19:59.347Z,290
2022-10-14T03:22:04.340Z,273
2022-10-14T03:24:10.738Z,268
2022-10-14T03:26:16.707Z,269
2022-10-14T03:28:23.099Z,268
2022-10-14T03:30:28.321Z,268
2022-10-14T03:32:33.327Z,270
2022-10-14T03:34:38.522Z,267
2022-10-14T03:36:43.565Z,278
2022-10-14T03:38:48.886Z,277
2022-10-14T03:40:53.856Z,277
2022-10-14T03:42:59.675Z,268
2022-10-14T03:45:04.747Z,279
2022-10-14T03:47:10.078Z,279
2022-10-14T03:49:15.094Z,280
2022-10-14T03:51:20.234Z,277
2022-10-14T03:53:25.444Z,277
2022-10-14T03:55:30.598Z,277
2022-10-14T03:57:36.355Z,279
2022-10-14T03:59:41.509Z,281
2022-10-14T04:01:46.733Z,282
2022-10-14T04:03:51.873Z,281
2022-10-14T04:05:57.001Z,281
2022-10-14T04:08:02.240Z,281
2022-10-14T04:10:07.442Z,281
2022-10-14T04:12:12.693Z,282
2022-10-14T04:14:30.058Z,282
2022-10-14T04:16:36.237Z,281
2022-10-14T04:18:42.357Z,282
2022-10-14T04:20:47.902Z,281
2022-10-14T04:22:54.193Z,282
2022-10-14T04:24:59.406Z,281
2022-10-14T04:27:04.614Z,282
2022-10-14T04:29:09.790Z,281
2022-10-14T04:31:14.992Z,282
2022-10-14T04:33:20.142Z,282
2022-10-14T04:35:25.256Z,282
2022-10-14T04:37:30.995Z,282
2022-10-14T04:39:36.183Z,282
2022-10-14T04:41:41.222Z,282
2022-10-14T04:43:46.627Z,283
2022-10-14T04:45:51.703Z,283
2022-10-14T04:47:56.976Z,282
2022-10-14T04:50:02.264Z,282
2022-10-14T04:52:07.646Z,282
2022-10-14T04:54:13.020Z,282
2022-10-14T04:56:18.227Z,282
2022-10-14T04:58:23.366Z,282
2022-10-14T05:00:28.357Z,282
2022-10-14T05:02:33.708Z,282
2022-10-14T05:04:38.809Z,282
2022-10-14T05:06:43.877Z,281
2022-10-14T05:08:49.100Z,282
2022-10-14T05:10:54.563Z,282
2022-10-14T05:13:01.187Z,268
2022-10-14T05:15:06.757Z,268
2022-10-14T05:17:11.883Z,267
2022-10-14T05:19:20.250Z,267
2022-10-14T05:21:26.025Z,267
2022-10-14T05:23:31.599Z,267
2022-10-14T05:25:37.083Z,267
2022-10-14T05:27:42.622Z,268
2022-10-14T05:29:48.394Z,267
2022-10-14T05:31:53.572Z,268
2022-10-14T05:33:58.728Z,268
2022-10-14T05:36:04.017Z,268
2022-10-14T05:38:10.040Z,268
2022-10-14T05:40:15.705Z,268
2022-10-14T05:42:22.133Z,267
2022-10-14T05:44:28.375Z,268
2022-10-14T05:46:33.803Z,270
2022-10-14T05:48:39.267Z,268
2022-10-14T05:50:44.409Z,270
2022-10-14T05:52:49.980Z,270
2022-10-14T05:54:55.666Z,270
2022-10-14T05:57:00.990Z,289
2022-10-14T05:59:06.167Z,289
2022-10-14T06:01:11.643Z,289
2022-10-14T06:03:17.333Z,289
2022-10-14T06:05:23.118Z,289
2022-10-14T06:07:28.666Z,289
2022-10-14T06:09:33.911Z,289
2022-10-14T06:11:39.196Z,289
2022-10-14T06:13:44.430Z,288
2022-10-14T06:15:49.512Z,289
2022-10-14T06:17:54.929Z,288
2022-10-14T06:20:00.076Z,288
2022-10-14T06:22:05.367Z,284
2022-10-14T06:24:11.218Z,286
2022-10-14T06:26:17.186Z,285
2022-10-14T06:28:23.484Z,285
2022-10-14T06:30:29.630Z,286
2022-10-14T06:32:36.967Z,286
2022-10-14T06:34:42.789Z,285
2022-10-14T06:36:48.167Z,285
2022-10-14T06:38:53.941Z,286
2022-10-14T06:40:59.488Z,286
2022-10-14T06:43:05.481Z,286
2022-10-14T06:45:10.968Z,286
2022-10-14T06:47:16.610Z,285
2022-10-14T06:49:21.926Z,285
2022-10-14T06:51:27.948Z,285
2022-10-14T06:53:34.882Z,286
2022-10-14T06:55:40.831Z,285
2022-10-14T06:57:47.174Z,284
2022-10-14T06:59:53.037Z,284
2022-10-14T07:01:59.724Z,285
2022-10-14T07:04:06.331Z,285
2022-10-14T07:06:13.284Z,284
2022-10-14T07:08:19.911Z,284
2022-10-14T07:10:27.124Z,285
2022-10-14T07:12:33.610Z,284
2022-10-14T07:14:40.425Z,285
2022-10-14T07:16:46.815Z,284
2022-10-14T07:18:52.985Z,284
2022-10-14T07:20:58.692Z,284
2022-10-14T07:23:05.975Z,284
2022-10-14T07:25:12.549Z,284
2022-10-14T07:27:19.182Z,284
2022-10-14T07:29:26.645Z,284
2022-10-14T07:31:32.640Z,284
2022-10-14T07:33:38.805Z,284
2022-10-14T07:35:44.886Z,284
2022-10-14T07:37:51.355Z,284
2022-10-14T07:39:58.334Z,284
2022-10-14T07:42:05.042Z,285
2022-10-14T07:44:11.282Z,284
2022-10-14T07:46:17.263Z,286
2022-10-14T07:48:58.009Z,286
2022-10-14T07:51:04.209Z,288
2022-10-14T07:53:10.241Z,288
2022-10-14T07:55:16.400Z,288
2022-10-14T07:57:23.917Z,286
2022-10-14T07:59:30.199Z,286
2022-10-14T08:01:36.440Z,286
2022-10-14T08:03:43.030Z,286
2022-10-14T08:05:52.382Z,265
2022-10-14T08:07:58.423Z,266
2022-10-14T08:10:04.686Z,265
2022-10-14T08:12:10.783Z,265
2022-10-14T08:14:16.169Z,265
2022-10-14T08:16:22.270Z,264
2022-10-14T08:18:28.613Z,264
2022-10-14T08:20:34.977Z,265
2022-10-14T08:22:40.831Z,265
2022-10-14T08:24:46.869Z,268
2022-10-14T08:26:52.903Z,268
2022-10-14T08:28:59.088Z,270
2022-10-14T08:31:05.642Z,270
2022-10-14T08:33:11.510Z,272
2022-10-14T08:35:18.275Z,272
2022-10-14T08:37:23.773Z,267
2022-10-14T08:39:29.132Z,276
2022-10-14T08:41:34.859Z,268
2022-10-14T08:43:41.005Z,273
2022-10-14T08:45:46.988Z,268
2022-10-14T08:47:52.604Z,270
2022-10-14T08:49:58.753Z,272
2022-10-14T08:52:04.627Z,266
2022-10-14T08:54:10.724Z,272
2022-10-14T08:56:17.050Z,276
2022-10-14T09:00:30.072Z,264
2022-10-14T09:02:36.240Z,268
2022-10-14T09:04:42.481Z,262
2022-10-14T09:06:48.561Z,272
2022-10-14T09:08:54.535Z,274
2022-10-14T09:11:00.734Z,274
2022-10-14T09:13:07.085Z,273
2022-10-14T09:15:13.096Z,268
2022-10-14T09:17:19.476Z,269
2022-10-14T09:19:25.698Z,276
2022-10-14T09:21:55.015Z,278
2022-10-14T09:24:01.071Z,277
2022-10-14T09:26:07.404Z,276
2022-10-14T09:28:13.591Z,280
2022-10-14T09:30:19.902Z,280
2022-10-14T09:32:26.423Z,279
2022-10-14T09:34:34.412Z,279
2022-10-14T09:36:40.504Z,280
2022-10-14T09:38:47.234Z,280
2022-10-14T09:40:53.190Z,281
2022-10-14T09:42:59.230Z,279
2022-10-14T09:47:15.568Z,276
2022-10-14T09:49:21.664Z,276
2022-10-14T09:51:27.812Z,278
2022-10-14T09:53:33.427Z,278
2022-10-14T09:55:40.073Z,279
2022-10-14T09:57:46.769Z,279
2022-10-14T09:59:53.086Z,279
2022-10-14T10:01:59.637Z,278
2022-10-14T10:04:05.745Z,278
2022-10-14T10:06:11.710Z,278
2022-10-14T10:08:17.682Z,279
2022-10-14T10:10:25.385Z,279
2022-10-14T10:12:31.699Z,279
2022-10-14T10:14:38.720Z,279
2022-10-14T10:16:45.777Z,279
2022-10-14T10:18:51.976Z,279
2022-10-14T10:20:58.519Z,264
2022-10-14T10:23:04.790Z,283
2022-10-14T10:25:11.169Z,298
2022-10-14T10:27:17.364Z,298
2022-10-14T10:29:24.877Z,298
2022-10-14T10:31:31.654Z,296
2022-10-14T10:33:38.166Z,298
2022-10-14T10:35:43.536Z,298
2022-10-14T10:37:49.372Z,298
2022-10-14T10:39:55.514Z,298
2022-10-14T10:42:01.704Z,298
2022-10-14T10:44:07.608Z,298
2022-10-14T10:46:13.047Z,298
2022-10-14T10:48:18.879Z,298
2022-10-14T10:50:24.740Z,297
2022-10-14T10:52:31.166Z,298
2022-10-14T10:54:38.054Z,298
2022-10-14T10:56:43.845Z,298
2022-10-14T10:58:49.449Z,298
2022-10-14T11:00:56.426Z,297
2022-10-14T11:03:02.901Z,297
2022-10-14T11:05:09.971Z,297
2022-10-14T11:07:15.681Z,297
2022-10-14T11:09:23.629Z,297
2022-10-14T11:11:29.623Z,297
2022-10-14T11:13:36.343Z,297
2022-10-14T11:15:43.722Z,297
2022-10-14T11:17:51.140Z,297
2022-10-14T11:19:57.698Z,297
2022-10-14T11:22:03.827Z,297
2022-10-14T11:24:10.356Z,297
2022-10-14T11:26:18.267Z,297
2022-10-14T11:28:25.034Z,297
2022-10-14T11:30:32.805Z,297
2022-10-14T11:32:39.796Z,297
2022-10-14T11:34:49.674Z,297
2022-10-14T11:36:56.060Z,297
2022-10-14T11:39:02.732Z,297
2022-10-14T11:41:14.909Z,296
2022-10-14T11:43:22.331Z,296
2022-10-14T11:45:32.925Z,296
2022-10-14T11:47:41.399Z,296
2022-10-14T11:49:47.605Z,297
2022-10-14T11:52:20.104Z,297
2022-10-14T11:54:26.241Z,297
2022-10-14T11:56:32.012Z,296
2022-10-14T11:58:37.598Z,297
2022-10-14T12:00:44.561Z,297
2022-10-14T12:02:52.696Z,296
2022-10-14T12:05:19.572Z,297
2022-10-14T12:07:26.150Z,297
2022-10-14T12:09:32.445Z,297
2022-10-14T12:11:39.684Z,297
2022-10-14T12:13:46.360Z,297
2022-10-14T12:15:51.983Z,297
2022-10-14T12:17:58.365Z,297
2022-10-14T12:20:05.455Z,297
2022-10-14T12:22:12.049Z,297
2022-10-14T12:24:18.831Z,297
2022-10-14T12:26:26.858Z,297
2022-10-14T12:28:38.648Z,297
2022-10-14T12:30:48.845Z,297
2022-10-14T12:32:54.779Z,297
2022-10-14T12:35:02.503Z,297
2022-10-14T12:37:08.502Z,297
2022-10-14T12:39:14.802Z,297
2022-10-14T12:41:21.407Z,297
2022-10-14T12:43:27.148Z,297
2022-10-14T12:45:35.290Z,297
2022-10-14T12:47:42.871Z,297
2022-10-14T12:49:50.262Z,297
2022-10-14T12:51:58.148Z,297
2022-10-14T12:54:04.334Z,297
2022-10-14T12:56:10.826Z,297
2022-10-14T12:58:17.678Z,297
2022-10-14T13:00:24.923Z,297
2022-10-14T13:02:32.264Z,297
2022-10-14T13:04:39.532Z,297
2022-10-14T13:06:46.167Z,297
2022-10-14T13:08:52.202Z,297
2022-10-14T13:10:59.803Z,297
2022-10-14T13:15:12.798Z,294
2022-10-14T13:17:18.771Z,296
2022-10-14T13:19:27.748Z,265
2022-10-14T13:21:34.021Z,298
2022-10-14T13:23:40.635Z,296
2022-10-14T13:25:46.656Z,293
2022-10-14T13:27:53.203Z,291
2022-10-14T13:30:19.752Z,293
2022-10-14T13:32:33.449Z,291
2022-10-14T13:34:41.590Z,292
2022-10-14T13:36:47.711Z,284
2022-10-14T13:38:54.352Z,288
2022-10-14T13:41:00.984Z,286
2022-10-14T13:43:07.281Z,286
2022-10-14T13:45:13.382Z,284
2022-10-14T13:47:19.936Z,288
2022-10-14T13:49:27.065Z,289
2022-10-14T13:51:39.980Z,289
2022-10-14T13:53:47.202Z,288
2022-10-14T13:55:57.748Z,286
2022-10-14T13:58:15.947Z,279
2022-10-14T14:00:44.539Z,281
2022-10-14T14:03:03.206Z,272
2022-10-14T14:05:09.690Z,272
2022-10-14T14:08:42.060Z,277
2022-10-14T14:11:20.406Z,277
2022-10-14T14:13:27.131Z,279
2022-10-14T14:15:33.830Z,283
2022-10-14T14:17:41.581Z,284
2022-10-14T14:19:51.035Z,284
2022-10-14T14:21:58.112Z,282
2022-10-14T14:24:05.024Z,288
2022-10-14T14:26:22.398Z,288
2022-10-14T14:28:29.556Z,288
2022-10-14T14:30:39.442Z,277
2022-10-14T14:32:48.301Z,280
2022-10-14T14:34:55.694Z,282
2022-10-14T14:37:55.933Z,286
2022-10-14T14:40:03.325Z,286
2022-10-14T14:42:09.564Z,267
2022-10-14T14:44:28.713Z,277
2022-10-14T14:46:38.344Z,279
2022-10-14T14:48:44.620Z,281
2022-10-14T14:50:53.348Z,282
2022-10-14T14:52:59.680Z,282
2022-10-14T14:55:06.362Z,282
2022-10-14T14:57:13.968Z,282
2022-10-14T14:59:20.370Z,283
2022-10-14T15:01:27.494Z,283
2022-10-14T15:03:33.944Z,280
2022-10-14T15:06:00.716Z,280
2022-10-14T15:08:06.829Z,280
2022-10-14T15:10:13.210Z,278
2022-10-14T15:12:39.852Z,278
2022-10-14T15:14:47.444Z,276
2022-10-14T15:16:55.895Z,279
2022-10-14T15:19:03.018Z,279
2022-10-14T15:21:11.625Z,279
2022-10-14T15:23:18.000Z,279
2022-10-14T15:25:24.202Z,279
2022-10-14T15:27:30.957Z,279
2022-10-14T15:29:37.362Z,279
2022-10-14T15:31:43.889Z,279
2022-10-14T15:33:50.258Z,279
2022-10-14T15:35:58.615Z,278
2022-10-14T15:38:05.937Z,276
2022-10-14T15:40:13.427Z,276
2022-10-14T15:42:20.639Z,276
2022-10-14T15:44:27.643Z,276
2022-10-14T15:46:33.636Z,296
2022-10-14T15:48:40.138Z,297
2022-10-14T15:50:46.298Z,297
2022-10-14T15:52:52.912Z,297
2022-10-14T15:55:02.135Z,297
2022-10-14T15:57:12.454Z,297
2022-10-14T15:59:22.966Z,297
2022-10-14T16:01:29.684Z,297
2022-10-14T16:03:42.696Z,297
2022-10-14T16:05:49.312Z,294
2022-10-14T16:07:56.454Z,294
2022-10-14T16:10:03.202Z,294
2022-10-14T16:12:09.665Z,294
2022-10-14T16:14:16.048Z,294
2022-10-14T16:16:22.430Z,294
2022-10-14T16:18:28.610Z,294
2022-10-14T16:20:35.036Z,294
2022-10-14T16:22:41.447Z,296
2022-10-14T16:24:47.865Z,296
2022-10-14T16:26:54.686Z,296
2022-10-14T16:29:00.991Z,296
2022-10-14T16:31:06.706Z,296
2022-10-14T16:33:12.538Z,294
2022-10-14T16:35:18.671Z,291
2022-10-14T16:37:26.319Z,293
2022-10-14T16:39:32.554Z,293
2022-10-14T16:41:39.686Z,293
2022-10-14T16:43:45.680Z,293
2022-10-14T16:45:52.379Z,293
2022-10-14T16:47:58.503Z,293
2022-10-14T16:50:04.839Z,293
2022-10-14T16:52:11.873Z,291
2022-10-14T16:54:18.415Z,291
2022-10-14T16:56:25.019Z,291
2022-10-14T16:58:31.447Z,291
2022-10-14T17:00:37.216Z,291
2022-10-14T17:02:44.266Z,291
2022-10-14T17:04:51.451Z,291
2022-10-14T17:06:58.940Z,291
2022-10-14T17:09:06.026Z,291
2022-10-14T17:11:14.290Z,291
2022-10-14T17:13:21.166Z,291
2022-10-14T17:15:27.727Z,291
2022-10-14T17:17:34.100Z,291
2022-10-14T17:19:41.254Z,291
2022-10-14T17:21:48.284Z,291
2022-10-14T17:23:54.973Z,291
2022-10-14T17:26:01.995Z,291
2022-10-14T17:28:14.099Z,291
2022-10-14T17:30:22.556Z,291
2022-10-14T17:32:33.789Z,291
2022-10-14T17:34:41.071Z,290
2022-10-14T17:36:48.514Z,291
2022-10-14T17:38:55.292Z,289
2022-10-14T17:41:01.827Z,291
2022-10-14T17:43:08.796Z,288
2022-10-14T17:45:15.809Z,289
2022-10-14T17:47:24.666Z,288
2022-10-14T17:49:38.322Z,289
2022-10-14T17:51:46.127Z,289
2022-10-14T17:53:52.932Z,289
2022-10-14T17:56:04.860Z,289
2022-10-14T17:58:13.840Z,289
2022-10-14T18:00:22.136Z,289
2022-10-14T18:02:31.216Z,289
2022-10-14T18:04:37.644Z,289
2022-10-14T18:06:46.105Z,279
2022-10-14T18:08:54.333Z,282
2022-10-14T18:11:01.109Z,286
2022-10-14T18:13:11.557Z,284
2022-10-14T18:15:18.215Z,284
2022-10-14T18:17:27.803Z,284
2022-10-14T18:19:35.672Z,279
2022-10-14T18:21:46.046Z,278
2022-10-14T18:23:53.959Z,291
2022-10-14T18:26:01.893Z,291
2022-10-14T18:28:12.871Z,291
2022-10-14T18:30:22.128Z,291
2022-10-14T18:32:29.671Z,291
2022-10-14T18:34:40.061Z,291
2022-10-14T18:36:48.638Z,291
2022-10-14T18:38:58.511Z,291
2022-10-14T18:41:09.505Z,291
2022-10-14T18:43:19.478Z,291
2022-10-14T18:45:31.921Z,291
2022-10-14T18:47:38.598Z,291
2022-10-14T18:49:47.119Z,291
2022-10-14T18:51:59.548Z,276
2022-10-14T18:54:11.064Z,279
2022-10-14T18:56:18.530Z,279
2022-10-14T18:58:31.498Z,280
2022-10-14T19:00:39.773Z,286
2022-10-14T19:02:48.899Z,286
2022-10-14T19:04:59.806Z,279
2022-10-14T19:07:09.989Z,278
2022-10-14T19:09:18.190Z,278
2022-10-14T19:11:25.349Z,278
2022-10-14T19:13:37.619Z,280
2022-10-14T19:15:54.609Z,280
2022-10-14T19:18:03.640Z,279
2022-10-14T19:20:11.544Z,279
2022-10-14T19:22:27.647Z,277
2022-10-14T19:24:36.514Z,276
2022-10-14T19:26:54.028Z,277
2022-10-14T19:29:06.538Z,276
2022-10-14T19:31:17.756Z,277
2022-10-14T19:33:27.065Z,278
2022-10-14T19:35:36.133Z,277
2022-10-14T19:37:48.202Z,279
2022-10-14T19:39:58.887Z,280
2022-10-14T19:42:06.635Z,280
2022-10-14T19:44:14.992Z,281
2022-10-14T19:46:21.837Z,281
2022-10-14T19:48:31.149Z,278
2022-10-14T19:50:47.056Z,278
2022-10-14T19:52:56.986Z,277
2022-10-14T19:55:04.917Z,277
2022-10-14T19:57:12.041Z,277
2022-10-14T19:59:21.385Z,273
2022-10-14T20:01:28.718Z,277
2022-10-14T20:03:36.118Z,286
2022-10-14T20:05:43.448Z,280
2022-10-14T20:07:50.669Z,281
2022-10-14T20:10:04.574Z,289
2022-10-14T20:12:11.796Z,286
2022-10-14T20:14:19.614Z,274
2022-10-14T20:16:26.753Z,288
2022-10-14T20:18:34.703Z,289
2022-10-14T20:20:40.829Z,288
2022-10-14T20:22:48.262Z,286
2022-10-14T20:24:57.003Z,280
2022-10-14T20:27:09.370Z,289
2022-10-14T20:29:18.719Z,289
2022-10-14T20:31:25.632Z,289
2022-10-14T20:33:33.006Z,289
2022-10-14T20:35:39.466Z,289
2022-10-14T20:37:45.549Z,289
2022-10-14T20:39:52.365Z,289
2022-10-14T20:41:59.547Z,289
2022-10-14T20:44:06.150Z,289
2022-10-14T20:46:12.478Z,288
2022-10-14T20:48:19.904Z,289
2022-10-14T20:50:26.597Z,289
2022-10-14T20:52:36.669Z,289
2022-10-14T20:54:43.649Z,288
2022-10-14T20:56:50.600Z,288
2022-10-14T20:58:56.550Z,289
2022-10-14T21:01:03.134Z,289
2022-10-14T21:03:09.467Z,284
2022-10-14T21:05:15.610Z,286
2022-10-14T21:07:22.550Z,285
2022-10-14T21:09:29.594Z,285
2022-10-14T21:11:35.702Z,284
2022-10-14T21:13:42.040Z,284
2022-10-14T21:15:48.200Z,284
2022-10-14T21:17:54.341Z,289
2022-10-14T21:20:01.107Z,289
2022-10-14T21:22:07.161Z,289
2022-10-14T21:24:13.138Z,289
2022-10-14T21:26:19.710Z,284
2022-10-14T21:28:25.508Z,283
2022-10-14T21:30:30.930Z,282
2022-10-14T21:32:36.659Z,286
2022-10-14T21:34:44.237Z,288
2022-10-14T21:36:49.992Z,284
2022-10-14T21:41:01.642Z,284
2022-10-14T21:43:07.788Z,284
2022-10-14T21:45:14.543Z,284
2022-10-14T21:47:20.059Z,284
2022-10-14T21:49:25.736Z,284
2022-10-14T21:51:31.294Z,284
2022-10-14T21:53:37.142Z,284
2022-10-14T21:55:42.376Z,284
2022-10-14T21:57:47.806Z,284
2022-10-14T21:59:54.528Z,284
2022-10-14T22:01:59.849Z,284
2022-10-14T22:04:05.814Z,284
2022-10-14T22:06:11.219Z,284
2022-10-14T22:08:17.402Z,284
2022-10-14T22:10:23.673Z,284
2022-10-14T22:12:29.206Z,283
2022-10-14T22:14:34.515Z,284
2022-10-14T22:16:39.782Z,282
2022-10-14T22:18:46.316Z,280
2022-10-14T22:20:51.555Z,281
2022-10-14T22:22:57.043Z,282
2022-10-14T22:25:02.155Z,281
2022-10-14T22:27:07.601Z,281
2022-10-14T22:29:12.909Z,281
2022-10-14T22:31:18.247Z,281
2022-10-14T22:33:23.532Z,281
2022-10-14T22:35:30.942Z,281
2022-10-14T22:37:36.276Z,281
2022-10-14T22:39:41.470Z,281
2022-10-14T22:41:47.170Z,281
2022-10-14T22:43:52.413Z,281
2022-10-14T22:45:57.752Z,281
2022-10-14T22:48:02.914Z,281
2022-10-14T22:50:08.170Z,281
2022-10-14T22:52:13.428Z,280
2022-10-14T22:54:19.031Z,283
2022-10-14T22:56:24.161Z,283
2022-10-14T22:58:29.560Z,279
2022-10-14T23:00:35.186Z,269
2022-10-14T23:02:43.058Z,283
2022-10-14T23:04:48.601Z,283
2022-10-14T23:06:55.221Z,283
2022-10-14T23:09:00.655Z,283
2022-10-14T23:11:06.174Z,282
2022-10-14T23:13:11.779Z,282
2022-10-14T23:15:17.072Z,282
2022-10-14T23:17:22.285Z,282
2022-10-14T23:19:27.429Z,282
2022-10-14T23:21:32.499Z,283
2022-10-14T23:23:39.880Z,282
2022-10-14T23:25:45.330Z,282
2022-10-14T23:27:51.707Z,282
2022-10-14T23:29:56.967Z,282
2022-10-14T23:32:02.718Z,282
2022-10-14T23:34:10.934Z,282
2022-10-14T23:36:17.143Z,282
2022-10-14T23:38:22.431Z,282
2022-10-14T23:40:28.900Z,282
2022-10-14T23:42:34.254Z,282
2022-10-14T23:44:39.701Z,281
2022-10-14T23:46:44.839Z,282
2022-10-14T23:49:24.774Z,282
2022-10-14T23:51:31.412Z,282
2022-10-14T23:53:36.867Z,282
2022-10-14T23:55:42.319Z,281
2022-10-14T23:57:48.566Z,282
2022-10-14T23:59:53.571Z,278
